Lansdowne House Airport
CYLH : now visible

Airfield :











YOU CAN JOIN US ON...

 
LOGIN :

Register | Disclaimer

   EN    FR    IT 

 









Legend :    VFR   Marginal VFR   IFR   Intensive IFR   Very Intensive IFR
Visi :
Ceiling :
>= 8 km
>= 3000ft
5 to 8 km
1000 to 3000 ft
1500m to 5 km
500 to 1000 ft
800 to 1500m
200 to 500 ft
< 800m
< 200 ft
Symbols :   Thunderstorms  Fog  Heavy snow  Heavy precipitations  Wind > 20 kt






- Airport Elevation : 834 ft
- IATA code : YLH


CYLH - Lansdowne House

CURRENT METAR :
  • 072100Z AUTO 24009G19KT 210V290 9SM FEW070 28/13 A2982 RMK SLP100 DENSITY ALT 2600FT

EXPIRED METARs :
  • 072000Z AUTO 24010G21KT 180V260 9SM FEW070 28/14 A2983 RMK SLP105 DENSITY ALT 2600FT
  • 071900Z AUTO 21009G16KT 180V270 9SM FEW065 29/15 A2984 RMK SLP108 DENSITY ALT 2600FT

TAF N/A
CZWG FIR / North America



MET'MAP, your aeronautical weather chart ! - Copyright ORBIFLY December 2007 - Disclaimer

ORBIFLY MET'MAP TEAM :

Programming & Development : Alexandra Zaïnal
Concept & original design : Baudouin d'Aumeries
Assistance for programming : Marc-Olivier Méhu
Technical & hardware support : Manuel Goepfert

Contact : metmap@orbifly.com




SOURCES & CREDITS :

   NOAA       Earth
Advisory